Kamikawa Maru — JG5687 — position and weather

sailwx.info

Track history (hours):
 
Tides and Currents Weather Stations Pressure Air Temp Water Temp Dewpoint Dewpoint Depression Visibility Wind Speed Wind Dir Waves Ship Positions

Kamikawa Maru

Last reported at 2016-Dec-04 07:33 UTC. Time now 2016-Dec-04 12:19 UTC.
Position N 35°05' E 139°40'.

Length 162 m; draft 6.8 m.

Type: Cargo ship. MMSI: 431101012.

Date/timePositionNaut miles runAvg speedWind from/ knotsBaromVisibWave heightAir tempDewpointWater temp
2016-Dec-04 07:33N 35°05' E 139°40'1413.9
2016-Dec-04 06:33N 35°18' E 139°44'1515.2
2016-Dec-04 05:33N 35°32' E 139°51'7 5.4
2016-Dec-04 04:14N 35°38' E 139°46'0 0.0
2016-Dec-04 03:32N 35°38' E 139°46'0 0.0
2016-Dec-04 02:26N 35°38' E 139°46'0 0.0
2016-Dec-04 00:32N 35°38' E 139°46'0 0.1
2016-Dec-03 23:34N 35°38' E 139°46'1111.3
2016-Dec-03 22:33N 35°27' E 139°50'1212.1
2016-Dec-03 21:33N 35°15' E 139°47'1816.4
2016-Dec-03 20:28N 34°58' E 139°43'2015.0
2016-Dec-03 19:06N 34°57' E 140°08'  
2016-Nov-29 12:21N 34°60' E 139°42'1518.3
2016-Nov-29 11:33N 35°14' E 139°46'1313.3
2016-Nov-29 10:33N 35°27' E 139°47'11 9.5
2016-Nov-29 09:24N 35°38' E 139°46'0 0.1
2016-Nov-29 08:30N 35°38' E 139°46'0 0.0
2016-Nov-29 07:30N 35°38' E 139°46'0 0.0
2016-Nov-29 06:30N 35°38' E 139°46'0 0.0
2016-Nov-29 05:30N 35°38' E 139°46'0 0.0
2016-Nov-29 04:30N 35°38' E 139°46'0 0.0
2016-Nov-29 03:30N 35°38' E 139°46'0 0.0
2016-Nov-29 02:24N 35°38' E 139°46'0 0.0
2016-Nov-29 01:24N 35°38' E 139°46'0 0.1
2016-Nov-29 00:30N 35°38' E 139°46'0 0.2
2016-Nov-28 23:33N 35°38' E 139°46'1212.0
2016-Nov-28 22:33N 35°26' E 139°48'1212.0
2016-Nov-28 21:34N 35°14' E 139°47'19 0.5
2016-Nov-27 06:21N 34°59' E 139°32'1518.8
2016-Nov-27 05:33N 35°10' E 139°45'1413.8
2016-Nov-27 04:33N 35°23' E 139°42'1413.8
2016-Nov-27 03:33N 35°37' E 139°46'1 1.0
2016-Nov-27 02:31N 35°38' E 139°46'0 0.0
2016-Nov-27 01:31N 35°38' E 139°46'0 0.0
2016-Nov-27 00:31N 35°38' E 139°46'0 0.0
2016-Nov-26 23:33N 35°38' E 139°46'1211.6
2016-Nov-26 22:34N 35°27' E 139°50'1211.8
2016-Nov-26 21:33N 35°15' E 139°47'1616.3
2016-Nov-26 20:33N 34°59' E 139°42'  
Track history (hours):
 
Tides and Currents Weather Stations Pressure Air Temp Water Temp Dewpoint Dewpoint Depression Visibility Wind Speed Wind Dir Waves Ship Positions

Kamikawa Maru

Last reported at 2016-Dec-04 07:33 UTC. Time now 2016-Dec-04 12:19 UTC.
Position N 35°05' E 139°40'.

Length 162 m; draft 6.8 m.

Type: Cargo ship. MMSI: 431101012.

Date/timePositionNaut miles runAvg speedWind from/ knotsBaromVisibWave heightAir tempDewpointWater temp
2016-Dec-04 07:33N 35°05' E 139°40'1413.9
2016-Dec-04 06:33N 35°18' E 139°44'1515.2
2016-Dec-04 05:33N 35°32' E 139°51'7 5.4
2016-Dec-04 04:14N 35°38' E 139°46'0 0.0
2016-Dec-04 03:32N 35°38' E 139°46'0 0.0
2016-Dec-04 02:26N 35°38' E 139°46'0 0.0
2016-Dec-04 00:32N 35°38' E 139°46'0 0.1
2016-Dec-03 23:34N 35°38' E 139°46'1111.3
2016-Dec-03 22:33N 35°27' E 139°50'1212.1
2016-Dec-03 21:33N 35°15' E 139°47'1816.4
2016-Dec-03 20:28N 34°58' E 139°43'2015.0
2016-Dec-03 19:06N 34°57' E 140°08'  
2016-Nov-29 12:21N 34°60' E 139°42'1518.3
2016-Nov-29 11:33N 35°14' E 139°46'1313.3
2016-Nov-29 10:33N 35°27' E 139°47'11 9.5
2016-Nov-29 09:24N 35°38' E 139°46'0 0.1
2016-Nov-29 08:30N 35°38' E 139°46'0 0.0
2016-Nov-29 07:30N 35°38' E 139°46'0 0.0
2016-Nov-29 06:30N 35°38' E 139°46'0 0.0
2016-Nov-29 05:30N 35°38' E 139°46'0 0.0
2016-Nov-29 04:30N 35°38' E 139°46'0 0.0
2016-Nov-29 03:30N 35°38' E 139°46'0 0.0
2016-Nov-29 02:24N 35°38' E 139°46'0 0.0
2016-Nov-29 01:24N 35°38' E 139°46'0 0.1
2016-Nov-29 00:30N 35°38' E 139°46'0 0.2
2016-Nov-28 23:33N 35°38' E 139°46'1212.0
2016-Nov-28 22:33N 35°26' E 139°48'1212.0
2016-Nov-28 21:34N 35°14' E 139°47'19 0.5
2016-Nov-27 06:21N 34°59' E 139°32'1518.8
2016-Nov-27 05:33N 35°10' E 139°45'1413.8
2016-Nov-27 04:33N 35°23' E 139°42'1413.8
2016-Nov-27 03:33N 35°37' E 139°46'1 1.0
2016-Nov-27 02:31N 35°38' E 139°46'0 0.0
2016-Nov-27 01:31N 35°38' E 139°46'0 0.0
2016-Nov-27 00:31N 35°38' E 139°46'0 0.0
2016-Nov-26 23:33N 35°38' E 139°46'1211.6
2016-Nov-26 22:34N 35°27' E 139°50'1211.8
2016-Nov-26 21:33N 35°15' E 139°47'1616.3
2016-Nov-26 20:33N 34°59' E 139°42'  

Dump ship's entire track history